Time;durP1;ratioP1;P1;durP2;ratioP2;P2;SDS_P1;SDS_P2;PMS_P1;PMS_P2;Temp;Humidity;BMP_temperature;BMP_pressure;BME280_temperature;BME280_humidity;BME280_pressure;Samples;Min_cycle;Max_cycle;Signal;HPM_P1;HPM_P2
2024/01/19 00:02:13;;;;;;;3.25;1.33;;;2.30;99.90;;;;;;5115450;28;20070;-42
2024/01/19 00:04:39;;;;;;;6.35;1.48;;;2.30;99.90;;;;;;5113812;28;20418;-45
2024/01/19 00:07:05;;;;;;;7.03;1.33;;;2.30;99.90;;;;;;5115120;28;20047;-45
2024/01/19 00:09:30;;;;;;;4.68;1.48;;;2.20;99.90;;;;;;5115327;28;20022;-43
2024/01/19 00:11:56;;;;;;;2.42;1.20;;;2.20;99.90;;;;;;5103458;28;20051;-44
2024/01/19 00:14:22;;;;;;;2.67;0.95;;;2.20;99.90;;;;;;5094700;28;20071;-41
2024/01/19 00:16:47;;;;;;;3.17;0.82;;;2.20;99.90;;;;;;5104608;28;20443;-43
2024/01/19 00:19:13;;;;;;;0.95;0.47;;;2.10;99.90;;;;;;5114843;28;20031;-44
2024/01/19 00:21:46;;;;;;;1.77;0.90;;;2.00;99.90;;;;;;5114793;28;20054;-47
2024/01/19 00:24:13;;;;;;;4.07;0.80;;;1.90;99.90;;;;;;5114809;28;20051;-46
2024/01/19 00:26:39;;;;;;;3.83;0.52;;;1.90;99.90;;;;;;5113539;28;20023;-63
2024/01/19 00:29:05;;;;;;;1.02;0.68;;;2.00;99.90;;;;;;5111224;28;20507;-44
2024/01/19 00:31:31;;;;;;;3.03;0.57;;;2.00;99.90;;;;;;5092263;28;20123;-44
2024/01/19 00:33:57;;;;;;;1.00;0.30;;;2.00;99.90;;;;;;5094684;28;20032;-41
2024/01/19 00:36:23;;;;;;;0.60;0.50;;;2.00;99.90;;;;;;5094168;28;20392;-72
2024/01/19 00:38:48;;;;;;;0.80;0.40;;;2.00;99.90;;;;;;5094096;28;20024;-43
2024/01/19 00:41:15;;;;;;;1.35;0.70;;;2.00;99.90;;;;;;5094070;28;20066;-42
2024/01/19 00:43:41;;;;;;;0.30;0.17;;;2.00;99.90;;;;;;5094036;28;20117;-50
2024/01/19 00:46:07;;;;;;;0.50;0.30;;;2.00;99.90;;;;;;5094095;28;20404;-42
2024/01/19 00:48:32;;;;;;;0.80;0.28;;;2.00;99.90;;;;;;5093696;28;20509;-42
2024/01/19 00:50:58;;;;;;;1.77;0.28;;;2.10;99.90;;;;;;5105538;28;20135;-41
2024/01/19 00:53:23;;;;;;;0.95;0.40;;;2.10;99.90;;;;;;5114113;28;20388;-42
2024/01/19 00:55:49;;;;;;;1.77;0.38;;;2.10;99.90;;;;;;5114134;28;20038;-48
2024/01/19 00:58:15;;;;;;;1.85;0.20;;;2.00;99.90;;;;;;5114392;28;20407;-40
2024/01/19 01:00:41;;;;;;;0.10;0.10;;;2.00;99.90;;;;;;5114070;28;20015;-47
2024/01/19 01:03:08;;;;;;;0.43;0.40;;;2.00;99.90;;;;;;5113994;28;20502;-43
2024/01/19 01:05:33;;;;;;;1.40;0.50;;;1.90;99.90;;;;;;5113980;28;20027;-41
2024/01/19 01:07:59;;;;;;;0.52;0.30;;;1.90;99.90;;;;;;5113085;28;20399;-44
2024/01/19 01:10:24;;;;;;;2.05;0.40;;;1.80;99.90;;;;;;5113711;28;20056;-42
2024/01/19 01:12:50;;;;;;;0.73;0.35;;;1.70;99.90;;;;;;5095292;28;20066;-40
2024/01/19 01:15:16;;;;;;;3.28;0.47;;;1.60;99.90;;;;;;5113844;28;20495;-44
2024/01/19 01:17:41;;;;;;;2.38;0.55;;;1.60;99.90;;;;;;5114008;28;20027;-43
2024/01/19 01:20:10;;;;;;;7.00;0.82;;;1.60;99.90;;;;;;5113702;28;20019;-42
2024/01/19 01:22:36;;;;;;;2.75;0.80;;;1.60;99.90;;;;;;5114030;28;20152;-45
2024/01/19 01:25:02;;;;;;;7.88;0.60;;;1.60;99.90;;;;;;5112802;28;20055;-42
2024/01/19 01:27:27;;;;;;;3.85;0.65;;;1.50;99.90;;;;;;5112283;28;20089;-41
2024/01/19 01:29:53;;;;;;;4.82;1.25;;;1.50;99.90;;;;;;5103279;28;20028;-44
2024/01/19 01:32:19;;;;;;;3.35;1.00;;;1.50;99.90;;;;;;5093464;28;20024;-45
2024/01/19 01:34:44;;;;;;;1.45;0.55;;;1.40;99.90;;;;;;5093097;28;20073;-44
2024/01/19 01:37:10;;;;;;;1.20;0.88;;;1.40;99.90;;;;;;5093097;28;20024;-44
2024/01/19 01:39:36;;;;;;;1.75;0.85;;;1.40;99.90;;;;;;5092978;28;20036;-44
2024/01/19 01:42:01;;;;;;;7.00;0.80;;;1.40;99.90;;;;;;5093632;28;20400;-45
2024/01/19 01:44:27;;;;;;;3.35;0.73;;;1.40;99.90;;;;;;5092053;28;20032;-49
2024/01/19 01:46:52;;;;;;;5.13;0.90;;;1.40;99.90;;;;;;5108047;28;20035;-43
2024/01/19 01:49:18;;;;;;;1.50;0.60;;;1.30;99.90;;;;;;5132905;27;20406;-49
2024/01/19 01:51:45;;;;;;;2.97;0.80;;;1.30;99.90;;;;;;5132547;27;20020;-52
2024/01/19 01:54:12;;;;;;;4.53;0.80;;;1.30;99.90;;;;;;5133716;27;20075;-44
2024/01/19 01:56:37;;;;;;;11.23;1.50;;;1.40;99.90;;;;;;5133933;27;20499;-42
2024/01/19 01:59:03;;;;;;;3.30;0.40;;;1.30;99.90;;;;;;5107743;27;20025;-41
2024/01/19 02:01:29;;;;;;;3.25;0.90;;;1.30;99.90;;;;;;5092763;28;20027;-42
2024/01/19 02:03:57;;;;;;;2.17;1.00;;;1.30;99.90;;;;;;5092514;28;20020;-40
2024/01/19 02:06:23;;;;;;;;;;;1.30;99.90;;;;;;5092274;28;20028;-45
2024/01/19 02:08:48;;;;;;;3.45;0.57;;;1.40;99.90;;;;;;5091378;28;19961;-45
2024/01/19 02:11:14;;;;;;;0.50;0.50;;;1.40;99.90;;;;;;5092625;28;20036;-41
2024/01/19 02:13:40;;;;;;;3.33;0.55;;;1.50;99.90;;;;;;5092663;28;20148;-46
2024/01/19 02:16:05;;;;;;;0.38;0.30;;;1.60;99.90;;;;;;5093292;28;20082;-41
2024/01/19 02:18:31;;;;;;;1.27;0.50;;;1.60;99.90;;;;;;5092719;28;20055;-46
2024/01/19 02:20:57;;;;;;;7.45;0.73;;;1.60;99.90;;;;;;5092669;28;20031;-42
2024/01/19 02:23:26;;;;;;;5.72;1.05;;;1.60;99.90;;;;;;5092641;28;20391;-52
2024/01/19 02:25:52;;;;;;;3.22;0.70;;;1.60;99.90;;;;;;5092567;28;20032;-57
2024/01/19 02:28:18;;;;;;;3.50;0.85;;;1.60;99.90;;;;;;5092586;28;20495;-54
2024/01/19 02:30:45;;;;;;;7.95;0.95;;;1.50;99.90;;;;;;5092494;28;20035;-52
2024/01/19 02:33:11;;;;;;;3.67;0.70;;;1.50;99.90;;;;;;5105857;28;20020;-54
2024/01/19 02:35:37;;;;;;;1.67;0.73;;;1.50;99.90;;;;;;5112928;28;20024;-55
2024/01/19 02:38:03;;;;;;;4.88;0.52;;;1.50;99.90;;;;;;5112864;28;20055;-54
2024/01/19 02:40:28;;;;;;;2.85;0.73;;;1.50;99.90;;;;;;5112773;28;20110;-52
2024/01/19 02:42:54;;;;;;;9.10;1.02;;;1.50;99.90;;;;;;5112791;28;20016;-53
2024/01/19 02:45:20;;;;;;;1.38;0.80;;;1.50;99.90;;;;;;5096861;28;20036;-54
2024/01/19 02:47:45;;;;;;;1.60;0.98;;;1.50;99.90;;;;;;5105451;28;20475;-53
2024/01/19 02:50:11;;;;;;;3.60;0.98;;;1.50;99.90;;;;;;5104930;28;20353;-51
2024/01/19 02:52:37;;;;;;;4.35;0.70;;;1.50;99.90;;;;;;5092382;28;20028;-52
2024/01/19 02:55:04;;;;;;;5.35;0.50;;;1.50;99.90;;;;;;5093411;28;20028;-54
2024/01/19 02:57:31;;;;;;;1.05;0.70;;;1.50;99.90;;;;;;5096370;28;20491;-54
2024/01/19 02:59:56;;;;;;;1.88;0.70;;;1.50;99.90;;;;;;5094721;28;20020;-54
2024/01/19 03:02:23;;;;;;;3.97;0.75;;;1.40;99.90;;;;;;5094679;28;20020;-53
2024/01/19 03:04:48;;;;;;;6.75;0.93;;;1.40;99.90;;;;;;5096171;28;20032;-53
2024/01/19 03:07:14;;;;;;;2.88;0.85;;;1.40;99.90;;;;;;5096844;28;20058;-52
2024/01/19 03:09:40;;;;;;;2.00;0.70;;;1.40;99.90;;;;;;5095797;28;20062;-44
2024/01/19 03:12:06;;;;;;;3.97;0.70;;;1.40;99.90;;;;;;5095601;28;20177;-46
2024/01/19 03:14:35;;;;;;;1.58;0.82;;;1.40;99.90;;;;;;5095647;28;20035;-42
2024/01/19 03:17:00;;;;;;;1.80;0.80;;;1.40;99.90;;;;;;5095986;28;20024;-42
2024/01/19 03:19:26;;;;;;;5.55;1.00;;;1.40;99.90;;;;;;5095642;28;20495;-46
2024/01/19 03:21:52;;;;;;;4.40;0.80;;;1.40;99.90;;;;;;5095588;28;20070;-43
2024/01/19 03:24:17;;;;;;;2.78;0.77;;;1.40;99.90;;;;;;5095512;28;20081;-54
2024/01/19 03:26:43;;;;;;;10.88;1.73;;;1.40;99.90;;;;;;5095507;28;20373;-53
2024/01/19 03:29:09;;;;;;;1.70;0.70;;;1.40;99.90;;;;;;5095319;28;20028;-53
2024/01/19 03:31:35;;;;;;;3.40;1.05;;;1.40;99.90;;;;;;5095370;28;20054;-42
2024/01/19 03:34:00;;;;;;;1.88;0.77;;;1.40;99.90;;;;;;5095262;28;20031;-44
2024/01/19 03:36:26;;;;;;;2.92;0.77;;;1.40;99.90;;;;;;5095318;28;20039;-42
2024/01/19 03:38:52;;;;;;;2.08;0.82;;;1.40;99.90;;;;;;5095276;28;20028;-43
2024/01/19 03:41:17;;;;;;;1.85;1.08;;;1.40;99.90;;;;;;5095205;28;20028;-53
2024/01/19 03:43:44;;;;;;;2.33;1.23;;;1.30;99.90;;;;;;5095138;28;20481;-53
2024/01/19 03:46:10;;;;;;;2.50;1.00;;;1.30;99.90;;;;;;5095093;28;20028;-51
2024/01/19 03:48:36;;;;;;;2.40;1.00;;;1.30;99.90;;;;;;5093653;28;20032;-51
2024/01/19 03:51:01;;;;;;;4.18;1.48;;;1.30;99.90;;;;;;5095007;28;20024;-53
2024/01/19 03:53:27;;;;;;;12.85;1.30;;;1.30;99.90;;;;;;5094878;28;20055;-53
2024/01/19 03:55:53;;;;;;;4.78;1.27;;;1.30;99.90;;;;;;5093776;28;20028;-48
2024/01/19 03:58:19;;;;;;;1.90;1.02;;;1.30;99.90;;;;;;5094816;28;20028;-52
2024/01/19 04:00:44;;;;;;;4.78;1.25;;;1.40;99.90;;;;;;5094876;28;20027;-52
2024/01/19 04:03:10;;;;;;;7.80;1.08;;;1.40;99.90;;;;;;5094799;28;20099;-54
2024/01/19 04:05:36;;;;;;;2.00;1.08;;;1.50;99.90;;;;;;5094752;28;20024;-52
2024/01/19 04:08:02;;;;;;;3.88;0.85;;;1.50;99.90;;;;;;5093749;28;20479;-50
2024/01/19 04:10:28;;;;;;;2.65;1.00;;;1.50;99.90;;;;;;5094640;28;20024;-53
2024/01/19 04:12:54;;;;;;;4.18;1.83;;;1.60;99.90;;;;;;5094359;28;20065;-52
2024/01/19 04:15:19;;;;;;;4.22;1.90;;;1.60;99.90;;;;;;5094587;28;20032;-73
2024/01/19 04:17:45;;;;;;;4.60;1.40;;;1.60;99.90;;;;;;5094627;28;20024;-53
2024/01/19 04:20:11;;;;;;;4.63;1.42;;;1.30;99.90;;;;;;5094717;28;20016;-51
2024/01/19 04:22:37;;;;;;;2.78;1.10;;;1.30;99.90;;;;;;5094723;28;20027;-52
2024/01/19 04:25:02;;;;;;;0.75;0.63;;;1.30;99.90;;;;;;5094357;28;20550;-43
2024/01/19 04:27:28;;;;;;;4.10;1.40;;;1.30;99.90;;;;;;5094345;28;20430;-39
2024/01/19 04:29:53;;;;;;;4.82;1.02;;;1.20;99.90;;;;;;5094223;28;20031;-43
2024/01/19 04:32:20;;;;;;;1.10;0.95;;;1.20;99.90;;;;;;5094036;28;20392;-41
2024/01/19 04:34:45;;;;;;;3.30;1.10;;;1.30;99.90;;;;;;5094097;28;20477;-44
2024/01/19 04:37:11;;;;;;;0.55;0.47;;;1.30;99.90;;;;;;5094119;28;20057;-54
2024/01/19 04:39:37;;;;;;;2.08;0.80;;;1.30;99.90;;;;;;5094037;28;20020;-54
2024/01/19 04:42:02;;;;;;;0.90;0.50;;;1.40;99.90;;;;;;5094300;28;20472;-61
2024/01/19 04:44:28;;;;;;;0.85;0.60;;;1.50;99.90;;;;;;5093991;28;20055;-56
2024/01/19 04:46:54;;;;;;;3.70;0.50;;;1.50;99.90;;;;;;5093906;28;20032;-54
2024/01/19 04:49:19;;;;;;;1.90;0.80;;;1.50;99.90;;;;;;5093812;28;20024;-54
2024/01/19 04:51:45;;;;;;;4.00;1.08;;;1.50;99.90;;;;;;5094093;28;20081;-54
2024/01/19 04:54:10;;;;;;;0.45;0.45;;;1.50;99.90;;;;;;5093731;28;20472;-54
2024/01/19 04:56:36;;;;;;;6.55;1.75;;;1.50;99.90;;;;;;5093794;28;20066;-42
2024/01/19 04:59:02;;;;;;;1.52;0.57;;;1.50;99.90;;;;;;5093733;28;20457;-49
2024/01/19 05:01:28;;;;;;;1.17;0.30;;;1.50;99.90;;;;;;5093943;28;20057;-42
2024/01/19 05:03:54;;;;;;;2.08;0.50;;;1.50;99.90;;;;;;5093518;28;20024;-41
2024/01/19 05:06:19;;;;;;;0.38;0.30;;;1.50;99.90;;;;;;5093595;28;20054;-66
2024/01/19 05:08:46;;;;;;;0.63;0.40;;;1.50;99.90;;;;;;5093542;28;20081;-44
2024/01/19 05:11:13;;;;;;;0.65;0.30;;;1.40;99.90;;;;;;5093470;28;20468;-53
2024/01/19 05:13:40;;;;;;;1.60;1.02;;;1.40;99.90;;;;;;5093322;28;20020;-56
2024/01/19 05:16:06;;;;;;;2.50;0.40;;;1.40;99.90;;;;;;5093399;28;20484;-56
2024/01/19 05:18:32;;;;;;;9.98;0.90;;;1.40;99.90;;;;;;5093148;28;20024;-54
2024/01/19 05:20:57;;;;;;;0.63;0.40;;;1.40;99.90;;;;;;5093341;28;20031;-54
2024/01/19 05:23:23;;;;;;;0.75;0.40;;;1.40;99.90;;;;;;5093306;28;20368;-53
2024/01/19 05:25:48;;;;;;;1.20;0.30;;;1.40;99.90;;;;;;5093245;28;20085;-53
2024/01/19 05:28:15;;;;;;;2.22;0.68;;;1.40;99.90;;;;;;5093277;28;20089;-45
2024/01/19 05:30:41;;;;;;;1.65;0.73;;;1.30;99.90;;;;;;5093059;28;20030;-45
2024/01/19 05:33:07;;;;;;;4.97;0.50;;;1.30;99.90;;;;;;5093330;28;20494;-42
2024/01/19 05:35:32;;;;;;;0.73;0.73;;;1.30;99.90;;;;;;5093106;28;20025;-41
2024/01/19 05:37:58;;;;;;;2.53;0.47;;;1.30;99.90;;;;;;5093115;28;20110;-45
2024/01/19 05:40:23;;;;;;;1.15;0.35;;;1.20;99.90;;;;;;5093028;28;20139;-45
2024/01/19 05:42:49;;;;;;;1.27;0.70;;;1.20;99.90;;;;;;5092973;28;20020;-43
2024/01/19 05:45:15;;;;;;;1.55;0.40;;;1.20;99.90;;;;;;5092955;28;20028;-44
2024/01/19 05:47:41;;;;;;;3.72;0.90;;;1.30;99.90;;;;;;5092928;28;20169;-43
2024/01/19 05:50:07;;;;;;;1.90;0.70;;;1.30;99.90;;;;;;5093118;28;20525;-43
2024/01/19 05:52:32;;;;;;;2.50;0.60;;;1.30;99.90;;;;;;5093013;28;20028;-42
2024/01/19 05:54:58;;;;;;;0.77;0.52;;;1.30;99.90;;;;;;5093055;28;20031;-42
2024/01/19 05:57:24;;;;;;;2.15;0.60;;;1.20;99.90;;;;;;5092944;28;20028;-41
2024/01/19 05:59:49;;;;;;;8.50;0.90;;;1.20;99.90;;;;;;5092849;28;20107;-43
2024/01/19 06:02:15;;;;;;;1.25;0.77;;;1.10;99.90;;;;;;5092826;28;20472;-43
2024/01/19 06:04:41;;;;;;;2.95;0.80;;;1.10;99.90;;;;;;5093015;28;20020;-43
2024/01/19 06:07:07;;;;;;;6.78;1.30;;;1.10;99.90;;;;;;5093036;28;20031;-42
2024/01/19 06:09:32;;;;;;;1.10;0.90;;;1.00;99.90;;;;;;5092711;28;20457;-43
2024/01/19 06:11:58;;;;;;;10.70;1.10;;;1.00;99.90;;;;;;5092667;28;20048;-54
2024/01/19 06:14:24;;;;;;;3.88;0.98;;;1.10;99.90;;;;;;5092668;28;20028;-53
2024/01/19 06:16:50;;;;;;;3.08;1.00;;;1.00;99.90;;;;;;5092590;28;20081;-53
2024/01/19 06:19:15;;;;;;;3.20;1.08;;;1.10;99.90;;;;;;5092651;28;20020;-53
2024/01/19 06:21:45;;;;;;;4.15;1.40;;;1.00;99.90;;;;;;5092619;28;20115;-54
2024/01/19 06:24:17;;;;;;;3.17;0.77;;;1.00;99.90;;;;;;5092574;28;20027;-55
2024/01/19 06:26:44;;;;;;;4.63;1.42;;;1.00;99.90;;;;;;5092602;28;20115;-54
2024/01/19 06:29:10;;;;;;;4.60;1.05;;;1.00;99.90;;;;;;5092771;28;20024;-53
2024/01/19 06:31:45;;;;;;;2.72;1.10;;;1.00;99.90;;;;;;5096083;28;20030;-54
2024/01/19 06:34:14;;;;;;;6.20;1.30;;;1.00;99.90;;;;;;5095488;28;20035;-52
2024/01/19 06:36:44;;;;;;;8.60;1.30;;;0.90;99.90;;;;;;5096429;28;20031;-54
2024/01/19 06:39:11;;;;;;;3.17;1.60;;;0.90;99.90;;;;;;5096424;28;20030;-42
2024/01/19 06:41:42;;;;;;;6.57;1.85;;;0.80;99.90;;;;;;5096573;28;20016;-42
2024/01/19 06:44:09;;;;;;;2.88;1.02;;;0.80;99.90;;;;;;5096364;28;20024;-44
2024/01/19 06:46:35;;;;;;;2.75;1.40;;;0.70;99.90;;;;;;5096530;28;20571;-41
2024/01/19 06:49:00;;;;;;;3.25;1.35;;;0.80;99.90;;;;;;5096127;28;20103;-41
2024/01/19 06:51:28;;;;;;;2.90;0.95;;;0.70;99.90;;;;;;5096197;28;20236;-54
2024/01/19 06:53:57;;;;;;;4.57;2.13;;;0.70;99.90;;;;;;5096326;28;20031;-54
2024/01/19 06:56:23;;;;;;;3.03;1.48;;;0.70;99.90;;;;;;5096067;28;20028;-43
2024/01/19 06:58:48;;;;;;;11.85;1.40;;;0.70;99.90;;;;;;5096002;28;20502;-43
2024/01/19 07:01:15;;;;;;;5.13;1.50;;;0.70;99.90;;;;;;5095910;28;20020;-43
2024/01/19 07:03:40;;;;;;;8.57;2.13;;;0.60;99.90;;;;;;5095914;28;20028;-54
2024/01/19 07:06:06;;;;;;;7.10;1.40;;;0.70;99.90;;;;;;5095870;28;20563;-70
2024/01/19 07:08:31;;;;;;;3.70;1.25;;;0.60;99.90;;;;;;5095811;28;20047;-54
2024/01/19 07:10:57;;;;;;;2.53;0.75;;;0.60;99.90;;;;;;5095627;28;20399;-53
2024/01/19 07:13:23;;;;;;;4.13;1.33;;;0.60;99.90;;;;;;5095625;28;20024;-53
2024/01/19 07:15:48;;;;;;;2.33;1.33;;;0.50;99.90;;;;;;5095699;28;20053;-55
2024/01/19 07:18:14;;;;;;;2.95;1.20;;;0.60;99.90;;;;;;5095691;28;20054;-54
2024/01/19 07:20:40;;;;;;;2.25;1.75;;;0.60;99.90;;;;;;5095526;28;20027;-55
2024/01/19 07:23:06;;;;;;;5.55;1.70;;;0.60;99.90;;;;;;5095568;28;20020;-54
2024/01/19 07:25:31;;;;;;;3.90;1.60;;;0.60;99.90;;;;;;5095417;28;20384;-54
2024/01/19 07:27:57;;;;;;;5.65;1.83;;;0.60;99.90;;;;;;5095687;28;20472;-54
2024/01/19 07:30:23;;;;;;;7.72;2.58;;;0.70;99.90;;;;;;5095331;28;20548;-50
2024/01/19 07:32:48;;;;;;;10.50;2.28;;;0.60;99.90;;;;;;5095256;28;20032;-52
2024/01/19 07:35:14;;;;;;;9.63;1.92;;;0.60;99.90;;;;;;5095182;28;20055;-54
2024/01/19 07:37:40;;;;;;;4.93;1.88;;;0.60;99.90;;;;;;5095478;28;20024;-53
2024/01/19 07:40:06;;;;;;;12.43;2.60;;;0.70;99.90;;;;;;5095266;28;20020;-56
2024/01/19 07:42:32;;;;;;;2.60;2.03;;;0.70;99.90;;;;;;5093937;28;20365;-56
2024/01/19 07:44:57;;;;;;;13.43;2.78;;;0.70;99.90;;;;;;5095145;28;20042;-52
2024/01/19 07:47:24;;;;;;;5.32;2.17;;;0.80;99.90;;;;;;5095138;28;20434;-49
2024/01/19 07:49:50;;;;;;;3.88;2.22;;;0.80;99.90;;;;;;5095248;28;20127;-53
2024/01/19 07:52:16;;;;;;;7.53;2.65;;;0.90;99.90;;;;;;5095085;28;20048;-45
2024/01/19 07:54:41;;;;;;;5.53;2.50;;;1.00;99.90;;;;;;5094918;28;20484;-46
2024/01/19 07:57:07;;;;;;;7.85;2.63;;;1.10;99.90;;;;;;5094875;28;20035;-48
2024/01/19 07:59:33;;;;;;;5.70;2.78;;;1.20;99.90;;;;;;5094806;28;20380;-68
2024/01/19 08:02:00;;;;;;;4.13;2.65;;;1.20;99.90;;;;;;5093494;28;20032;-47
2024/01/19 08:04:26;;;;;;;8.68;3.80;;;1.20;99.90;;;;;;5094639;28;20038;-45
2024/01/19 08:06:51;;;;;;;13.20;3.75;;;1.20;99.90;;;;;;5094713;28;20028;-43
2024/01/19 08:09:17;;;;;;;10.48;3.45;;;1.20;99.90;;;;;;5093398;28;20122;-45
2024/01/19 08:11:43;;;;;;;5.78;2.38;;;1.10;99.90;;;;;;5094461;28;20046;-46
2024/01/19 08:14:08;;;;;;;8.13;4.30;;;1.00;99.90;;;;;;5094486;28;20418;-45
2024/01/19 08:16:34;;;;;;;6.00;3.40;;;1.00;99.90;;;;;;5094568;28;20022;-46
2024/01/19 08:19:02;;;;;;;7.20;3.00;;;0.90;99.90;;;;;;5094495;28;20047;-48
2024/01/19 08:21:28;;;;;;;8.63;3.63;;;0.90;99.90;;;;;;5094622;28;20522;-45
2024/01/19 08:23:53;;;;;;;4.07;2.90;;;1.00;99.90;;;;;;5093044;28;20024;-62
2024/01/19 08:26:20;;;;;;;5.20;2.63;;;1.00;99.90;;;;;;5094629;28;20036;-48
2024/01/19 08:28:46;;;;;;;12.60;2.53;;;1.00;99.90;;;;;;5094245;28;20023;-44
2024/01/19 08:31:12;;;;;;;3.45;2.40;;;1.00;99.90;;;;;;5094158;28;20032;-46
2024/01/19 08:33:38;;;;;;;9.70;3.58;;;1.00;99.90;;;;;;5094108;28;20032;-45
2024/01/19 08:36:04;;;;;;;6.25;3.58;;;1.00;99.90;;;;;;5094439;28;20051;-48
2024/01/19 08:38:30;;;;;;;3.05;2.22;;;1.10;99.90;;;;;;5094117;28;20024;-46
2024/01/19 08:40:56;;;;;;;5.72;3.17;;;1.20;99.90;;;;;;5094025;28;20476;-43
2024/01/19 08:43:21;;;;;;;6.43;2.50;;;1.10;99.90;;;;;;5093986;28;20028;-52
2024/01/19 08:45:47;;;;;;;6.07;3.22;;;1.20;99.90;;;;;;5093942;28;20081;-43
2024/01/19 08:48:13;;;;;;;4.90;2.75;;;1.20;99.90;;;;;;5093753;28;20427;-46
2024/01/19 08:50:39;;;;;;;4.68;3.50;;;1.30;99.90;;;;;;5093776;28;20028;-49
2024/01/19 08:53:05;;;;;;;5.15;3.03;;;1.40;99.90;;;;;;5093510;28;20448;-43
2024/01/19 08:55:30;;;;;;;9.70;3.10;;;1.40;99.90;;;;;;5093777;28;20503;-52
2024/01/19 08:57:56;;;;;;;8.63;2.80;;;1.40;99.90;;;;;;5093832;28;20024;-63
2024/01/19 09:00:22;;;;;;;6.88;2.80;;;1.40;99.90;;;;;;5093725;28;20020;-48
2024/01/19 09:02:50;;;;;;;7.28;3.15;;;1.40;99.90;;;;;;5093638;28;20051;-48
2024/01/19 09:05:16;;;;;;;8.68;3.15;;;1.40;99.90;;;;;;5093684;28;20081;-49
2024/01/19 09:07:42;;;;;;;7.88;2.80;;;1.50;99.90;;;;;;5093795;28;20115;-46
2024/01/19 09:10:08;;;;;;;6.78;2.45;;;1.60;99.90;;;;;;5093457;28;20050;-46
2024/01/19 09:12:34;;;;;;;4.00;2.10;;;1.60;99.90;;;;;;5093276;28;20044;-47
2024/01/19 09:14:59;;;;;;;7.47;2.53;;;1.70;99.90;;;;;;5093332;28;20032;-46
2024/01/19 09:17:25;;;;;;;7.60;3.15;;;1.80;99.90;;;;;;5093408;28;20021;-48
2024/01/19 09:19:54;;;;;;;10.43;2.20;;;1.80;99.90;;;;;;5091991;28;20030;-46
2024/01/19 09:22:19;;;;;;;6.40;2.83;;;1.90;99.90;;;;;;5093270;28;20038;-48
2024/01/19 09:24:45;;;;;;;6.07;2.50;;;2.00;99.90;;;;;;5093255;28;20036;-46
2024/01/19 09:27:11;;;;;;;3.03;2.17;;;2.10;99.90;;;;;;5092855;28;20028;-48
2024/01/19 09:29:36;;;;;;;3.70;2.33;;;2.10;99.90;;;;;;5093308;28;20020;-43
2024/01/19 09:32:02;;;;;;;5.20;2.03;;;2.20;99.90;;;;;;5093172;28;20045;-48
2024/01/19 09:34:28;;;;;;;8.10;2.03;;;2.20;99.90;;;;;;5093120;28;20090;-45
2024/01/19 09:36:53;;;;;;;7.75;2.15;;;2.30;99.90;;;;;;5093370;28;20055;-47
2024/01/19 09:39:21;;;;;;;6.00;2.10;;;2.40;99.90;;;;;;5092991;28;20493;-46
2024/01/19 09:41:49;;;;;;;10.60;2.42;;;2.50;99.90;;;;;;5092957;28;20026;-54
2024/01/19 09:44:18;;;;;;;6.88;2.22;;;2.60;99.90;;;;;;5092977;28;20401;-54
2024/01/19 09:47:04;;;;;;;7.93;2.45;;;2.70;99.90;;;;;;5092942;28;20028;-57
2024/01/19 09:49:55;;;;;;;10.65;2.22;;;2.80;99.90;;;;;;5092923;28;20085;-54
2024/01/19 09:52:51;;;;;;;8.65;2.00;;;2.80;99.90;;;;;;5092875;28;20480;-54
2024/01/19 09:55:18;;;;;;;3.65;1.90;;;2.80;99.90;;;;;;5091870;28;20504;-54
2024/01/19 09:57:48;;;;;;;3.80;2.22;;;2.90;99.90;;;;;;5092870;28;20024;-53
2024/01/19 10:00:15;;;;;;;6.93;2.97;;;2.90;99.90;;;;;;5092956;28;20484;-55
2024/01/19 10:02:52;;;;;;;9.25;1.95;;;2.90;99.90;;;;;;5091527;28;20111;-51
2024/01/19 10:05:19;;;;;;;4.60;2.10;;;2.90;99.90;;;;;;5093073;28;20028;-53
2024/01/19 10:07:47;;;;;;;2.92;2.35;;;3.00;99.90;;;;;;5097130;28;20028;-43
2024/01/19 10:10:13;;;;;;;;;;;3.10;99.90;;;;;;5097333;28;20024;-46
2024/01/19 10:12:39;;;;;;;9.20;1.88;;;3.20;99.90;;;;;;5096674;28;19939;-43
2024/01/19 10:15:11;;;;;;;2.50;2.15;;;3.30;99.90;;;;;;5096838;28;20537;-42
2024/01/19 10:17:37;;;;;;;4.68;2.20;;;3.40;99.90;;;;;;5097189;28;20028;-47
2024/01/19 10:20:03;;;;;;;6.30;2.45;;;3.70;99.90;;;;;;5097047;28;20031;-43
2024/01/19 10:22:29;;;;;;;5.85;2.25;;;3.80;99.90;;;;;;5096806;28;20028;-64
2024/01/19 10:25:02;;;;;;;8.63;2.53;;;3.90;99.90;;;;;;5096669;28;20369;-46
2024/01/19 10:27:53;;;;;;;5.13;2.17;;;3.80;99.90;;;;;;5096530;28;20063;-45
2024/01/19 10:30:23;;;;;;;6.38;1.85;;;3.70;99.90;;;;;;5096493;28;20074;-43
2024/01/19 10:32:51;;;;;;;6.93;3.85;;;3.70;99.90;;;;;;5097065;28;20476;-62
2024/01/19 10:35:18;;;;;;;;;;;3.70;99.90;;;;;;5096852;28;20115;-45
2024/01/19 10:37:44;;;;;;;14.10;3.30;;;3.70;99.90;;;;;;5096394;28;19908;-45
2024/01/19 10:40:20;;;;;;;11.98;3.03;;;3.80;99.90;;;;;;5096419;28;20503;-44
2024/01/19 10:42:48;;;;;;;6.97;2.92;;;3.80;99.90;;;;;;5096700;28;20083;-42
2024/01/19 10:45:20;;;;;;;4.30;2.35;;;3.90;99.90;;;;;;5096645;28;20476;-43
2024/01/19 10:47:47;;;;;;;9.23;2.63;;;3.80;99.90;;;;;;5094946;28;20114;-44
2024/01/19 10:50:14;;;;;;;5.28;2.35;;;3.90;99.90;;;;;;5096059;28;20024;-42
2024/01/19 10:52:41;;;;;;;3.60;2.40;;;3.90;99.90;;;;;;5094767;28;20400;-50
2024/01/19 10:55:09;;;;;;;6.05;2.55;;;3.90;99.90;;;;;;5095990;28;20111;-46
2024/01/19 10:57:34;;;;;;;5.13;2.00;;;4.00;99.90;;;;;;5096056;28;20020;-47
2024/01/19 11:00:19;;;;;;;14.77;2.90;;;4.00;99.90;;;;;;5096358;28;20024;-45
2024/01/19 11:02:48;;;;;;;6.05;1.95;;;4.00;99.90;;;;;;5096192;28;20456;-55
2024/01/19 11:05:16;;;;;;;3.75;2.05;;;4.10;99.90;;;;;;5096173;28;20024;-56
2024/01/19 11:07:42;;;;;;;6.68;2.40;;;4.10;99.90;;;;;;5096103;28;20060;-56
2024/01/19 11:10:08;;;;;;;5.60;2.00;;;4.10;99.90;;;;;;5095806;28;20612;-56
2024/01/19 11:12:38;;;;;;;2.05;1.67;;;4.20;99.90;;;;;;5095475;28;20097;-62
2024/01/19 11:15:09;;;;;;;5.90;2.72;;;4.20;99.90;;;;;;5096239;28;20036;-56
2024/01/19 11:17:37;;;;;;;5.95;2.50;;;4.20;99.90;;;;;;5095284;28;20434;-57
2024/01/19 11:20:04;;;;;;;11.57;2.20;;;4.20;99.90;;;;;;5095704;28;20024;-56
2024/01/19 11:22:30;;;;;;;7.15;2.25;;;4.30;99.90;;;;;;5095551;28;20024;-56
2024/01/19 11:25:06;;;;;;;6.75;2.40;;;4.30;99.90;;;;;;5095584;28;20112;-56
2024/01/19 11:27:40;;;;;;;9.52;3.42;;;4.40;99.90;;;;;;5095705;28;20446;-61
2024/01/19 11:30:23;;;;;;;6.63;2.13;;;4.40;99.90;;;;;;5095460;28;20519;-55
2024/01/19 11:32:49;;;;;;;8.82;2.60;;;4.40;99.90;;;;;;5095549;28;20081;-57
2024/01/19 11:35:38;;;;;;;9.23;2.50;;;4.40;99.90;;;;;;5095244;28;20444;-54
2024/01/19 11:38:03;;;;;;;7.05;2.40;;;4.50;99.90;;;;;;5095438;28;20016;-57
2024/01/19 11:40:29;;;;;;;11.27;2.60;;;4.60;99.90;;;;;;5095275;28;20020;-71
2024/01/19 11:42:55;;;;;;;12.43;3.28;;;4.60;99.90;;;;;;5095147;28;20020;-52
2024/01/19 11:45:40;;;;;;;13.95;2.80;;;4.70;99.90;;;;;;5095210;28;20032;-57
2024/01/19 11:48:07;;;;;;;8.15;2.95;;;4.70;99.90;;;;;;5095098;28;20052;-66
2024/01/19 11:50:47;;;;;;;7.50;1.88;;;4.80;99.90;;;;;;5095091;28;20076;-57
2024/01/19 11:53:14;;;;;;;13.50;3.05;;;4.80;99.90;;;;;;5093638;28;20035;-63
2024/01/19 11:55:41;;;;;;;16.15;2.42;;;4.90;99.90;;;;;;5095234;28;20016;-57
2024/01/19 11:58:27;;;;;;;12.40;2.20;;;4.90;99.90;;;;;;5095230;28;20016;-56
2024/01/19 12:01:03;;;;;;;4.55;1.75;;;5.00;99.90;;;;;;5094812;28;20024;-61
2024/01/19 12:03:29;;;;;;;4.45;1.77;;;5.00;99.90;;;;;;5094825;28;20027;-56
2024/01/19 12:05:59;;;;;;;10.60;2.30;;;5.00;99.90;;;;;;5094842;28;20020;-64
2024/01/19 12:08:25;;;;;;;7.80;2.45;;;5.00;99.90;;;;;;5094770;28;20031;-71
2024/01/19 12:11:04;;;;;;;10.48;2.97;;;5.10;99.90;;;;;;5094736;28;20396;-57
2024/01/19 12:13:35;;;;;;;6.82;1.77;;;5.10;99.90;;;;;;5094380;28;20036;-65
2024/01/19 12:16:02;;;;;;;4.63;2.25;;;5.20;99.90;;;;;;5094520;28;20069;-57
2024/01/19 12:18:28;;;;;;;5.13;2.50;;;5.10;99.90;;;;;;5094812;28;20028;-61
2024/01/19 12:20:56;;;;;;;4.90;2.13;;;5.10;99.90;;;;;;5094492;28;20016;-56
2024/01/19 12:23:23;;;;;;;5.00;2.25;;;5.10;99.90;;;;;;5094514;28;20529;-56
2024/01/19 12:25:54;;;;;;;9.55;2.55;;;5.20;99.90;;;;;;5094721;28;20473;-56
2024/01/19 12:28:20;;;;;;;8.85;2.05;;;5.20;99.90;;;;;;5093617;28;20035;-57
2024/01/19 12:30:45;;;;;;;3.92;2.30;;;5.20;99.90;;;;;;5092873;28;20017;-57
2024/01/19 12:33:25;;;;;;;5.05;2.15;;;5.20;99.90;;;;;;5094532;28;20023;-55
2024/01/19 12:36:02;;;;;;;5.20;2.05;;;5.20;99.90;;;;;;5094238;28;20561;-57
2024/01/19 12:38:28;;;;;;;9.55;3.33;;;5.30;99.90;;;;;;5094236;28;20525;-58
2024/01/19 12:40:54;;;;;;;15.50;2.40;;;5.30;99.90;;;;;;5093979;28;20016;-57
2024/01/19 12:43:20;;;;;;;3.28;1.60;;;5.30;99.90;;;;;;5093908;28;20042;-57
2024/01/19 12:45:45;;;;;;;4.53;2.13;;;5.30;99.90;;;;;;5093902;28;20134;-57
2024/01/19 12:48:11;;;;;;;13.18;2.20;;;5.30;99.90;;;;;;5093867;28;20387;-58
2024/01/19 12:50:36;;;;;;;10.85;1.90;;;5.30;99.90;;;;;;5093875;28;20039;-57
2024/01/19 12:53:02;;;;;;;5.82;2.40;;;5.30;99.90;;;;;;5093938;28;20060;-55
2024/01/19 12:55:31;;;;;;;7.72;2.17;;;5.40;99.90;;;;;;5093732;28;20437;-57
2024/01/19 12:57:58;;;;;;;9.38;1.65;;;5.40;99.90;;;;;;5075714;28;20111;-56